createdAt,value
2019-05-08T00:02:06.175Z,7.30
2019-05-08T00:04:36.247Z,7.40
2019-05-08T00:07:06.422Z,7.40
2019-05-08T00:09:36.438Z,7.50
2019-05-08T00:12:18.081Z,7.50
2019-05-08T00:14:51.834Z,7.50
2019-05-08T00:17:22.617Z,7.50
2019-05-08T00:19:52.971Z,7.60
2019-05-08T00:22:23.379Z,7.70
2019-05-08T00:24:53.533Z,7.80
2019-05-08T00:27:27.188Z,7.80
2019-05-08T00:29:55.752Z,7.60
2019-05-08T00:32:55.615Z,7.60
2019-05-08T00:35:28.655Z,7.80
2019-05-08T00:37:58.990Z,7.70
2019-05-08T00:40:29.170Z,7.90
2019-05-08T00:42:59.339Z,7.80
2019-05-08T00:45:29.432Z,7.90
2019-05-08T00:48:07.132Z,7.70
2019-05-08T00:50:32.795Z,7.60
2019-05-08T00:53:03.536Z,7.60
2019-05-08T00:55:34.763Z,7.80
2019-05-08T00:58:12.376Z,7.80
2019-05-08T01:00:58.979Z,7.80
2019-05-08T01:03:29.170Z,7.90
2019-05-08T01:05:59.300Z,7.90
2019-05-08T01:08:29.409Z,7.70
2019-05-08T01:10:59.649Z,7.70
2019-05-08T01:13:29.768Z,7.80
2019-05-08T01:15:59.765Z,7.90
2019-05-08T01:18:29.718Z,8.00
2019-05-08T01:20:59.635Z,8.00
2019-05-08T01:23:31.708Z,8.00
2019-05-08T01:26:01.893Z,7.90
2019-05-08T01:28:32.231Z,8.00
2019-05-08T01:31:02.474Z,8.00
2019-05-08T01:33:33.547Z,7.90
2019-05-08T01:36:03.912Z,7.80
2019-05-08T01:38:52.928Z,7.80
2019-05-08T01:41:25.861Z,7.80
2019-05-08T01:43:55.875Z,7.90
2019-05-08T01:46:25.983Z,7.90
2019-05-08T01:48:56.102Z,7.80
2019-05-08T01:51:26.220Z,7.70
2019-05-08T01:53:56.351Z,7.70
2019-05-08T01:56:26.360Z,7.70
2019-05-08T01:58:56.473Z,7.80
2019-05-08T02:01:26.525Z,7.70
2019-05-08T02:03:56.563Z,7.60
2019-05-08T02:06:26.480Z,7.70
2019-05-08T02:08:56.542Z,8.00
2019-05-08T02:11:26.630Z,7.80
2019-05-08T02:13:56.737Z,7.80
2019-05-08T02:16:26.906Z,7.80
2019-05-08T02:18:57.087Z,7.90
2019-05-08T02:21:32.945Z,7.90
2019-05-08T02:24:07.567Z,8.00
2019-05-08T02:27:02.925Z,8.00
2019-05-08T02:29:33.459Z,8.00
2019-05-08T02:32:04.007Z,7.80
2019-05-08T02:34:34.227Z,7.80
2019-05-08T02:37:04.533Z,8.00
2019-05-08T02:39:34.894Z,7.90
2019-05-08T02:42:05.167Z,7.80
2019-05-08T02:44:35.274Z,7.80
2019-05-08T02:47:06.894Z,7.80
2019-05-08T02:49:40.010Z,7.70
2019-05-08T02:52:10.860Z,7.70
2019-05-08T02:54:41.732Z,7.80
2019-05-08T02:57:11.917Z,8.10
2019-05-08T02:59:42.103Z,8.20
2019-05-08T03:02:41.317Z,8.20
2019-05-08T03:05:12.469Z,8.10
2019-05-08T03:07:42.520Z,8.30
2019-05-08T03:10:12.789Z,7.90
2019-05-08T03:12:42.955Z,7.80
2019-05-08T03:15:13.171Z,8.00
2019-05-08T03:17:43.191Z,8.10
2019-05-08T03:20:13.481Z,8.00
2019-05-08T03:22:43.618Z,7.90
2019-05-08T03:25:21.103Z,7.70
2019-05-08T03:27:51.370Z,7.60
2019-05-08T03:30:23.792Z,7.60
2019-05-08T03:32:54.671Z,7.70
2019-05-08T03:35:25.043Z,7.70
2019-05-08T03:37:55.014Z,7.60
2019-05-08T03:40:25.135Z,7.70
2019-05-08T03:42:55.169Z,7.60
2019-05-08T03:45:32.445Z,7.60
2019-05-08T03:48:02.447Z,7.50
2019-05-08T03:50:32.470Z,7.60
2019-05-08T03:53:02.489Z,7.70
2019-05-08T03:55:32.465Z,7.70
2019-05-08T03:58:02.611Z,7.60
2019-05-08T04:00:32.670Z,7.50
2019-05-08T04:03:02.712Z,7.60
2019-05-08T04:05:32.705Z,7.70
2019-05-08T04:08:02.738Z,7.60
2019-05-08T04:10:32.791Z,7.70
2019-05-08T04:13:02.945Z,7.80
2019-05-08T04:15:47.016Z,7.90
2019-05-08T04:18:21.211Z,7.80
2019-05-08T04:20:50.883Z,7.60
2019-05-08T04:23:21.518Z,7.70
2019-05-08T04:25:51.680Z,8.00
2019-05-08T04:28:21.977Z,7.80
2019-05-08T04:30:52.106Z,7.80
2019-05-08T04:33:22.130Z,7.80
2019-05-08T04:35:52.287Z,7.90
2019-05-08T04:38:22.279Z,8.20
2019-05-08T04:40:52.364Z,7.90
2019-05-08T04:43:22.524Z,7.80
2019-05-08T04:45:54.609Z,8.00
2019-05-08T04:48:24.631Z,8.10
2019-05-08T04:50:54.702Z,8.00
2019-05-08T04:53:55.613Z,8.20
2019-05-08T04:56:32.225Z,8.00
2019-05-08T04:59:03.640Z,9.30
2019-05-08T05:01:35.554Z,10.10
2019-05-08T05:04:05.849Z,10.20
2019-05-08T05:06:35.853Z,11.00
2019-05-08T05:09:10.548Z,11.60
2019-05-08T05:11:39.898Z,11.30
2019-05-08T05:14:10.299Z,11.00
2019-05-08T05:16:40.763Z,11.10
2019-05-08T05:19:10.891Z,11.90
2019-05-08T05:21:41.003Z,12.20
2019-05-08T05:24:14.301Z,11.60
2019-05-08T05:26:44.397Z,12.00
2019-05-08T05:29:21.410Z,11.30
2019-05-08T05:31:46.216Z,10.50
2019-05-08T05:34:19.429Z,10.00
2019-05-08T05:36:49.780Z,9.90
2019-05-08T05:39:43.278Z,9.90
2019-05-08T05:42:32.244Z,9.60
2019-05-08T05:45:02.264Z,9.40
2019-05-08T05:47:32.173Z,9.60
2019-05-08T05:50:02.337Z,10.10
2019-05-08T05:52:32.362Z,11.00
2019-05-08T05:55:02.499Z,10.80
2019-05-08T05:57:32.527Z,10.50
2019-05-08T06:00:02.567Z,10.30
2019-05-08T06:02:32.751Z,10.30
2019-05-08T06:05:02.666Z,10.00
2019-05-08T06:07:32.694Z,10.00
2019-05-08T06:10:02.790Z,9.90
2019-05-08T06:12:33.438Z,9.90
2019-05-08T06:15:03.764Z,10.00
2019-05-08T06:17:49.522Z,10.00
2019-05-08T06:20:20.526Z,10.10
2019-05-08T06:22:52.369Z,10.00
2019-05-08T06:25:23.912Z,9.90
2019-05-08T06:27:54.324Z,10.00
2019-05-08T06:30:24.714Z,10.10
2019-05-08T06:32:54.757Z,10.40
2019-05-08T06:35:24.746Z,10.60
2019-05-08T06:37:54.789Z,10.50
2019-05-08T06:40:24.935Z,10.30
2019-05-08T06:42:59.995Z,10.30
2019-05-08T06:46:03.036Z,10.30
2019-05-08T06:48:34.182Z,10.50
2019-05-08T06:51:04.452Z,10.60
2019-05-08T06:53:39.516Z,10.80
2019-05-08T06:56:10.798Z,10.60
2019-05-08T06:58:40.890Z,10.70
2019-05-08T07:01:17.234Z,10.80
2019-05-08T07:03:50.235Z,11.20
2019-05-08T07:06:21.469Z,11.20
2019-05-08T07:08:51.723Z,11.20
2019-05-08T07:11:21.743Z,11.30
2019-05-08T07:13:52.496Z,11.70
2019-05-08T07:16:53.642Z,11.60
2019-05-08T07:19:40.179Z,11.70
2019-05-08T07:22:11.136Z,12.00
2019-05-08T07:24:41.226Z,12.20
2019-05-08T07:27:11.339Z,12.40
2019-05-08T07:29:46.302Z,12.70
2019-05-08T07:32:16.481Z,13.00
2019-05-08T07:34:46.523Z,13.10
2019-05-08T07:37:16.576Z,13.20
2019-05-08T07:39:46.588Z,13.40
2019-05-08T07:42:16.634Z,13.60
2019-05-08T07:44:46.661Z,13.60
2019-05-08T07:47:17.154Z,13.70
2019-05-08T07:49:49.118Z,14.00
2019-05-08T07:52:19.502Z,14.30
2019-05-08T07:54:49.989Z,14.30
2019-05-08T07:57:20.687Z,14.30
2019-05-08T07:59:50.905Z,14.40
2019-05-08T08:02:22.724Z,14.40
2019-05-08T08:04:52.712Z,14.40
2019-05-08T08:07:24.493Z,14.20
2019-05-08T08:09:56.318Z,14.20
2019-05-08T08:12:44.916Z,14.50
2019-05-08T08:15:39.670Z,14.60
2019-05-08T08:18:10.064Z,14.80
2019-05-08T08:20:40.182Z,14.70
2019-05-08T08:23:10.235Z,14.80
2019-05-08T08:25:40.391Z,14.60
2019-05-08T08:28:10.571Z,14.50
2019-05-08T08:30:40.770Z,14.70
2019-05-08T08:33:10.881Z,14.50
2019-05-08T08:35:43.960Z,14.40
2019-05-08T08:38:12.691Z,15.00
2019-05-08T08:40:42.860Z,15.30
2019-05-08T08:43:12.965Z,15.60
2019-05-08T08:46:02.016Z,15.70
2019-05-08T08:48:33.174Z,16.20
2019-05-08T08:51:04.591Z,16.10
2019-05-08T08:53:49.865Z,16.30
2019-05-08T08:56:20.684Z,15.90
2019-05-08T08:58:50.810Z,16.50
2019-05-08T09:01:20.904Z,16.60
2019-05-08T09:03:51.003Z,16.60
2019-05-08T09:06:21.010Z,16.80
2019-05-08T09:08:50.959Z,17.10
2019-05-08T09:11:21.159Z,17.10
2019-05-08T09:13:51.177Z,17.10
2019-05-08T09:16:21.316Z,17.30
2019-05-08T09:18:51.457Z,17.20
2019-05-08T09:21:40.477Z,17.00
2019-05-08T09:24:10.601Z,16.10
2019-05-08T09:26:40.711Z,16.40
2019-05-08T09:29:10.787Z,16.50
2019-05-08T09:32:05.675Z,16.90
2019-05-08T09:34:44.598Z,17.00
2019-05-08T09:37:14.780Z,16.60
2019-05-08T09:39:44.905Z,16.60
2019-05-08T09:42:14.907Z,16.70
2019-05-08T09:44:44.987Z,16.60
2019-05-08T09:47:25.546Z,16.60
2019-05-08T09:50:13.287Z,16.30
2019-05-08T09:52:43.299Z,16.00
2019-05-08T09:55:13.711Z,16.00
2019-05-08T09:57:44.622Z,15.80
2019-05-08T10:00:30.388Z,15.70
2019-05-08T10:03:00.631Z,15.70
2019-05-08T10:05:30.840Z,15.90
2019-05-08T10:08:00.943Z,15.70
2019-05-08T10:10:31.657Z,15.70
2019-05-08T10:13:01.785Z,15.70
2019-05-08T10:15:32.169Z,15.60
2019-05-08T10:18:02.267Z,15.60
2019-05-08T10:20:34.690Z,15.70
2019-05-08T10:23:04.279Z,16.00
2019-05-08T10:25:40.904Z,15.90
2019-05-08T10:28:06.432Z,15.70
2019-05-08T10:30:42.171Z,15.80
2019-05-08T10:33:12.354Z,15.80
2019-05-08T10:35:49.290Z,15.80
2019-05-08T10:38:21.046Z,15.70
2019-05-08T10:41:13.328Z,15.70
2019-05-08T10:43:43.438Z,15.90
2019-05-08T10:46:13.457Z,15.90
2019-05-08T10:48:43.650Z,16.00
2019-05-08T10:51:13.784Z,16.20
2019-05-08T10:53:43.950Z,16.20
2019-05-08T10:56:14.022Z,16.30
2019-05-08T10:58:44.220Z,16.20
2019-05-08T11:01:14.416Z,16.10
2019-05-08T11:03:44.460Z,16.10
2019-05-08T11:06:33.743Z,16.10
2019-05-08T11:09:25.582Z,16.40
2019-05-08T11:12:13.514Z,16.60
2019-05-08T11:14:44.222Z,16.70
2019-05-08T11:20:02.579Z,16.90
2019-05-08T11:22:32.652Z,16.90
2019-05-08T11:25:02.821Z,16.70
2019-05-08T11:27:32.994Z,16.80
2019-05-08T11:30:03.742Z,16.80
2019-05-08T11:32:34.151Z,16.90
2019-05-08T11:35:05.146Z,16.60
2019-05-08T11:37:35.411Z,16.40
2019-05-08T11:40:09.738Z,16.20
2019-05-08T11:43:00.121Z,16.10
2019-05-08T11:45:51.934Z,16.00
2019-05-08T11:48:21.978Z,16.20
2019-05-08T11:50:55.083Z,16.00
2019-05-08T11:53:23.947Z,16.10
2019-05-08T11:55:54.198Z,16.10
2019-05-08T11:58:24.192Z,16.10
2019-05-08T12:00:54.297Z,16.30
2019-05-08T12:03:24.270Z,16.20
2019-05-08T12:05:57.044Z,16.50
2019-05-08T12:08:26.108Z,16.80
2019-05-08T12:10:56.074Z,16.60
2019-05-08T12:13:26.119Z,16.80
2019-05-08T12:15:59.466Z,17.00
2019-05-08T12:18:29.635Z,17.40
2019-05-08T12:20:59.992Z,17.70
2019-05-08T12:23:30.139Z,17.70
2019-05-08T12:26:20.264Z,17.40
2019-05-08T12:29:20.982Z,17.80
2019-05-08T12:32:09.496Z,18.20
2019-05-08T12:34:41.089Z,18.30
2019-05-08T12:37:11.243Z,18.40
2019-05-08T12:39:44.356Z,18.50
2019-05-08T12:42:13.232Z,18.30
2019-05-08T12:44:43.346Z,18.40
2019-05-08T12:47:13.560Z,18.40
2019-05-08T12:49:43.685Z,18.20
2019-05-08T12:52:15.590Z,18.10
2019-05-08T12:54:51.644Z,18.10
2019-05-08T12:57:21.768Z,18.00
2019-05-08T12:59:51.831Z,17.90
2019-05-08T13:02:22.052Z,18.30
2019-05-08T13:04:52.124Z,18.80
2019-05-08T13:07:22.475Z,18.60
2019-05-08T13:09:52.592Z,18.70
2019-05-08T13:12:23.138Z,18.20
2019-05-08T13:14:53.163Z,17.80
2019-05-08T13:17:23.303Z,17.70
2019-05-08T13:19:53.454Z,17.50
2019-05-08T13:22:23.619Z,17.20
2019-05-08T13:24:53.694Z,17.20
2019-05-08T13:27:23.762Z,17.30
2019-05-08T13:29:53.853Z,17.10
2019-05-08T13:32:24.124Z,17.20
2019-05-08T13:35:07.244Z,17.20
2019-05-08T13:37:29.742Z,17.10
2019-05-08T13:40:00.864Z,17.00
2019-05-08T13:42:31.495Z,16.90
2019-05-08T13:45:04.223Z,16.90
2019-05-08T13:47:45.859Z,16.80
2019-05-08T13:50:15.675Z,16.90
2019-05-08T13:52:50.590Z,17.10
2019-05-08T13:55:20.800Z,17.00
2019-05-08T13:57:50.855Z,16.90
2019-05-08T14:00:25.887Z,16.80
2019-05-08T14:02:56.094Z,16.90
2019-05-08T14:05:27.761Z,16.80
2019-05-08T14:08:00.786Z,16.70
2019-05-08T14:10:30.305Z,16.70
2019-05-08T14:13:00.474Z,16.80
2019-05-08T14:15:30.550Z,16.60
2019-05-08T14:18:00.730Z,16.80
2019-05-08T14:20:30.858Z,16.80
2019-05-08T14:23:00.952Z,16.70
2019-05-08T14:25:31.158Z,16.80
2019-05-08T14:28:01.215Z,17.00
2019-05-08T14:30:31.284Z,16.80
2019-05-08T14:33:22.923Z,16.80
2019-05-08T14:35:55.737Z,16.80
2019-05-08T14:38:25.932Z,16.60
2019-05-08T14:40:56.024Z,16.70
2019-05-08T14:43:26.181Z,16.70
2019-05-08T14:45:56.402Z,16.70
2019-05-08T14:48:26.464Z,16.60
2019-05-08T14:51:07.057Z,16.50
2019-05-08T14:53:28.355Z,16.70
2019-05-08T14:55:59.788Z,16.60
2019-05-08T14:58:30.035Z,16.70
2019-05-08T15:01:00.346Z,16.60
2019-05-08T15:03:31.439Z,16.50
2019-05-08T15:06:05.135Z,16.50
2019-05-08T15:08:33.528Z,16.50
2019-05-08T15:11:03.696Z,16.40
2019-05-08T15:13:33.902Z,16.60
2019-05-08T15:16:04.133Z,16.80
2019-05-08T15:18:34.272Z,16.80
2019-05-08T15:21:04.553Z,16.70
2019-05-08T15:23:34.896Z,16.40
2019-05-08T15:26:05.688Z,16.40
2019-05-08T15:28:39.896Z,16.40
2019-05-08T15:31:31.097Z,16.30
2019-05-08T15:34:10.542Z,16.20
2019-05-08T15:36:41.232Z,16.20
2019-05-08T15:39:12.121Z,16.30
2019-05-08T15:41:42.408Z,16.30
2019-05-08T15:44:12.468Z,16.30
2019-05-08T15:46:56.575Z,16.30
2019-05-08T15:49:29.983Z,16.30
2019-05-08T15:52:00.059Z,16.50
2019-05-08T15:54:30.233Z,16.40
2019-05-08T15:57:00.395Z,16.50
2019-05-08T15:59:30.547Z,16.40
2019-05-08T16:02:00.533Z,16.50
2019-05-08T16:04:30.623Z,16.30
2019-05-08T16:07:00.743Z,16.10
2019-05-08T16:09:31.347Z,16.20
2019-05-08T16:12:01.434Z,16.20
2019-05-08T16:14:31.456Z,16.10
2019-05-08T16:17:01.421Z,16.00
2019-05-08T16:19:31.468Z,16.00
2019-05-08T16:22:01.513Z,16.00
2019-05-08T16:24:32.227Z,16.00
2019-05-08T16:27:02.305Z,15.80
2019-05-08T16:29:52.280Z,15.80
2019-05-08T16:32:23.179Z,15.90
2019-05-08T16:34:54.055Z,16.00
2019-05-08T16:37:25.056Z,16.30
2019-05-08T16:39:55.221Z,16.10
2019-05-08T16:42:25.332Z,16.00
2019-05-08T16:44:55.442Z,15.90
2019-05-08T16:47:44.475Z,15.70
2019-05-08T16:50:23.325Z,15.60
2019-05-08T16:52:53.285Z,15.90
2019-05-08T16:55:23.458Z,15.60
2019-05-08T16:57:53.846Z,15.50
2019-05-08T17:00:24.178Z,15.30
2019-05-08T17:02:58.513Z,15.20
2019-05-08T17:05:46.170Z,15.10
2019-05-08T17:08:16.233Z,15.00
2019-05-08T17:10:46.204Z,14.90
2019-05-08T17:13:16.312Z,14.90
2019-05-08T17:15:46.384Z,15.00
2019-05-08T17:18:16.507Z,14.90
2019-05-08T17:20:48.622Z,14.80
2019-05-08T17:23:34.527Z,14.80
2019-05-08T17:26:04.728Z,14.80
2019-05-08T17:28:44.184Z,14.80
2019-05-08T17:31:17.677Z,14.80
2019-05-08T17:33:47.743Z,14.80
2019-05-08T17:36:27.110Z,14.70
2019-05-08T17:39:15.061Z,14.70
2019-05-08T17:41:45.088Z,15.00
2019-05-08T17:44:15.065Z,14.80
2019-05-08T17:47:04.002Z,14.70
2019-05-08T17:49:34.153Z,14.70
2019-05-08T17:52:04.344Z,14.60
2019-05-08T17:54:34.432Z,14.50
2019-05-08T17:57:04.677Z,14.50
2019-05-08T17:59:34.721Z,14.50
2019-05-08T18:02:05.579Z,14.50
2019-05-08T18:04:35.563Z,14.90
2019-05-08T18:07:05.605Z,15.10
2019-05-08T18:09:35.668Z,15.10
2019-05-08T18:12:05.889Z,15.00
2019-05-08T18:14:35.968Z,14.90
2019-05-08T18:17:20.724Z,14.70
2019-05-08T18:20:12.835Z,14.60
2019-05-08T18:23:03.487Z,14.50
2019-05-08T18:25:43.609Z,14.50
2019-05-08T18:28:14.396Z,14.80
2019-05-08T18:31:09.649Z,14.60
2019-05-08T18:33:43.350Z,14.30
2019-05-08T18:36:13.558Z,14.10
2019-05-08T18:38:44.159Z,14.40
2019-05-08T18:41:14.255Z,14.60
2019-05-08T18:43:44.324Z,14.50
2019-05-08T18:46:14.419Z,14.30
2019-05-08T18:48:44.474Z,14.10
2019-05-08T18:51:14.689Z,14.00
2019-05-08T18:54:05.936Z,13.90
2019-05-08T18:56:36.052Z,13.70
2019-05-08T18:59:13.903Z,13.70
2019-05-08T19:01:46.475Z,13.80
2019-05-08T19:04:16.439Z,13.50
2019-05-08T19:06:46.495Z,13.70
2019-05-08T19:09:16.658Z,13.50
2019-05-08T19:11:46.792Z,13.50
2019-05-08T19:14:17.525Z,13.50
2019-05-08T19:16:47.548Z,13.30
2019-05-08T19:19:35.805Z,13.20
2019-05-08T19:22:06.146Z,13.10
2019-05-08T19:24:36.097Z,13.10
2019-05-08T19:27:06.324Z,13.20
2019-05-08T19:29:36.386Z,13.10
2019-05-08T19:32:06.775Z,13.20
2019-05-08T19:34:38.268Z,13.10
2019-05-08T19:37:08.407Z,13.00
2019-05-08T19:39:38.483Z,13.10
2019-05-08T19:42:08.620Z,12.90
2019-05-08T19:44:54.283Z,12.80
2019-05-08T19:47:24.272Z,12.70
2019-05-08T19:49:54.244Z,12.70
2019-05-08T19:52:24.211Z,12.70
2019-05-08T19:54:54.250Z,12.80
2019-05-08T19:57:24.223Z,12.80
2019-05-08T19:59:54.269Z,12.80
2019-05-08T20:02:24.862Z,12.80
2019-05-08T20:04:54.896Z,12.80
2019-05-08T20:07:24.874Z,13.00
2019-05-08T20:09:54.838Z,13.10
2019-05-08T20:12:24.997Z,13.20
2019-05-08T20:14:55.030Z,13.10
2019-05-08T20:17:26.567Z,13.00
2019-05-08T20:19:56.682Z,12.90
2019-05-08T20:22:26.739Z,12.80
2019-05-08T20:24:56.780Z,12.70
2019-05-08T20:27:26.994Z,12.70
2019-05-08T20:29:57.094Z,13.00
2019-05-08T20:32:27.434Z,13.10
2019-05-08T20:34:57.548Z,13.30
2019-05-08T20:37:27.601Z,13.20
2019-05-08T20:39:57.569Z,13.20
2019-05-08T20:42:27.648Z,13.20
2019-05-08T20:44:57.704Z,13.20
2019-05-08T20:47:27.694Z,13.10
2019-05-08T20:49:57.652Z,13.10
2019-05-08T20:52:27.692Z,13.20
2019-05-08T20:54:57.683Z,13.00
2019-05-08T20:57:34.112Z,12.80
2019-05-08T21:00:06.984Z,12.70
2019-05-08T21:02:37.039Z,12.50
2019-05-08T21:05:08.953Z,12.40
2019-05-08T21:07:39.260Z,12.40
2019-05-08T21:10:14.040Z,12.40
2019-05-08T21:12:44.207Z,12.20
2019-05-08T21:15:14.743Z,12.10
2019-05-08T21:17:44.854Z,12.00
2019-05-08T21:20:21.100Z,11.90
2019-05-08T21:22:54.578Z,11.80
2019-05-08T21:25:24.685Z,11.90
2019-05-08T21:27:54.770Z,11.80
2019-05-08T21:30:24.977Z,11.70
2019-05-08T21:32:54.995Z,11.70
2019-05-08T21:35:26.084Z,11.70
2019-05-08T21:37:56.283Z,11.80
2019-05-08T21:40:26.619Z,11.70
2019-05-08T21:42:56.756Z,11.80
2019-05-08T21:45:26.853Z,11.80
2019-05-08T21:47:57.376Z,11.70
2019-05-08T21:50:27.589Z,11.50
2019-05-08T21:52:57.579Z,11.40
2019-05-08T21:55:27.526Z,11.30
2019-05-08T21:57:57.517Z,11.30
2019-05-08T22:00:39.660Z,11.30
2019-05-08T22:03:15.830Z,11.30
2019-05-08T22:05:46.312Z,11.30
2019-05-08T22:08:16.645Z,11.20
2019-05-08T22:10:47.205Z,11.20
2019-05-08T22:13:18.759Z,11.20
2019-05-08T22:15:48.988Z,11.20
2019-05-08T22:18:19.119Z,11.30
2019-05-08T22:20:49.247Z,11.10
2019-05-08T22:23:19.348Z,11.00
2019-05-08T22:25:49.468Z,11.00
2019-05-08T22:28:19.526Z,11.00
2019-05-08T22:30:49.581Z,10.90
2019-05-08T22:33:30.331Z,10.80
2019-05-08T22:36:00.359Z,10.90
2019-05-08T22:38:32.977Z,10.90
2019-05-08T22:41:04.095Z,10.80
2019-05-08T22:43:34.139Z,10.80
2019-05-08T22:46:05.332Z,10.80
2019-05-08T22:48:35.916Z,10.70
2019-05-08T22:51:06.130Z,10.80
2019-05-08T22:53:36.208Z,10.80
2019-05-08T22:56:06.387Z,10.90
2019-05-08T22:58:36.510Z,10.90
2019-05-08T23:01:06.628Z,10.90
2019-05-08T23:03:36.786Z,10.80
2019-05-08T23:06:08.068Z,10.80
2019-05-08T23:08:44.201Z,10.80
2019-05-08T23:11:14.337Z,10.70
2019-05-08T23:13:47.282Z,10.60
2019-05-08T23:16:16.438Z,10.50
2019-05-08T23:18:46.407Z,10.40
2019-05-08T23:21:16.487Z,10.30
2019-05-08T23:23:46.453Z,10.40
2019-05-08T23:26:16.434Z,10.50
2019-05-08T23:28:46.400Z,10.40
2019-05-08T23:31:16.400Z,10.30
2019-05-08T23:33:46.362Z,10.20
2019-05-08T23:36:30.617Z,10.20
2019-05-08T23:39:00.678Z,10.20
2019-05-08T23:41:32.851Z,10.20
2019-05-08T23:44:15.454Z,10.20
2019-05-08T23:46:45.524Z,10.10
2019-05-08T23:49:15.593Z,10.10
2019-05-08T23:51:45.548Z,10.00
2019-05-08T23:54:15.675Z,10.10
2019-05-08T23:56:45.721Z,10.00
2019-05-08T23:59:15.808Z,10.00
